Time;durP1;ratioP1;P1;durP2;ratioP2;P2;SDS_P1;SDS_P2;PMS_P1;PMS_P2;Temp;Humidity;BMP_temperature;BMP_pressure;BME280_temperature;BME280_humidity;BME280_pressure;Samples;Min_cycle;Max_cycle;Signal;HPM_P1;HPM_P2
2023/03/28 00:01:38;;;;;;;5.57;5.07;;;1.80;98.80;;;;;;4993400;28;20030;-54
2023/03/28 00:04:04;;;;;;;5.50;4.90;;;1.80;99.90;;;;;;4988167;28;20031;-53
2023/03/28 00:06:30;;;;;;;7.82;4.93;;;1.80;99.90;;;;;;4988659;28;20069;-52
2023/03/28 00:08:56;;;;;;;9.55;6.03;;;1.80;99.90;;;;;;4994243;28;20026;-52
2023/03/28 00:11:23;;;;;;;7.13;5.40;;;1.80;99.90;;;;;;4984843;28;20159;-55
2023/03/28 00:13:59;;;;;;;7.22;5.53;;;1.90;99.90;;;;;;4985203;28;20045;-52
2023/03/28 00:16:30;;;;;;;10.30;5.30;;;1.90;99.90;;;;;;4990457;28;20042;-48
2023/03/28 00:18:59;;;;;;;6.20;5.20;;;1.90;99.90;;;;;;4983756;28;20034;-55
2023/03/28 00:21:29;;;;;;;7.18;6.20;;;1.90;99.90;;;;;;4992064;28;20406;-53
2023/03/28 00:24:01;;;;;;;6.00;5.40;;;1.90;99.90;;;;;;4975767;28;20042;-52
2023/03/28 00:26:29;;;;;;;9.75;6.78;;;1.90;99.90;;;;;;4984457;28;20386;-51
2023/03/28 00:28:55;;;;;;;6.55;5.32;;;1.80;99.90;;;;;;4980801;28;20051;-51
2023/03/28 00:31:23;;;;;;;7.30;5.60;;;1.80;99.90;;;;;;4991179;28;20022;-49
2023/03/28 00:33:49;;;;;;;6.85;5.55;;;1.90;99.90;;;;;;4985455;28;20142;-53
2023/03/28 00:36:21;;;;;;;6.88;5.72;;;1.80;99.90;;;;;;4990660;28;20114;-50
2023/03/28 00:38:48;;;;;;;9.10;6.18;;;1.80;99.90;;;;;;4987173;28;20061;-51
2023/03/28 00:41:17;;;;;;;7.25;5.55;;;1.80;99.90;;;;;;4989482;28;20038;-50
2023/03/28 00:43:45;;;;;;;7.60;5.47;;;1.80;99.90;;;;;;4980780;28;20033;-55
2023/03/28 00:46:35;;;;;;;7.90;5.60;;;1.80;99.90;;;;;;4983828;28;20031;-51
2023/03/28 00:49:21;;;;;;;5.53;5.03;;;1.70;99.90;;;;;;4975722;28;20050;-48
2023/03/28 00:52:00;;;;;;;7.03;5.95;;;1.70;99.90;;;;;;4984950;28;20118;-49
2023/03/28 00:54:29;;;;;;;13.40;5.95;;;1.70;99.90;;;;;;4978989;28;20106;-52
2023/03/28 00:57:01;;;;;;;8.10;5.95;;;1.70;99.90;;;;;;4978504;28;20027;-51
2023/03/28 00:59:31;;;;;;;5.68;5.10;;;1.70;99.90;;;;;;4992599;28;20077;-48
2023/03/28 01:01:57;;;;;;;12.32;5.82;;;1.60;99.90;;;;;;4976937;28;20050;-52
2023/03/28 01:04:32;;;;;;;9.93;6.05;;;1.50;99.90;;;;;;4981988;28;20065;-51
2023/03/28 01:06:58;;;;;;;5.80;5.25;;;1.50;99.90;;;;;;4974037;28;20027;-51
2023/03/28 01:09:24;;;;;;;6.45;5.80;;;1.50;1.00;;;;;;4993322;28;20112;-48
2023/03/28 01:11:52;;;;;;;6.55;5.63;;;1.40;1.00;;;;;;4975856;28;20375;-51
2023/03/28 01:14:21;;;;;;;6.05;5.45;;;1.50;1.00;;;;;;4986914;28;20033;-53
2023/03/28 01:16:48;;;;;;;7.43;5.10;;;1.50;1.00;;;;;;4976620;28;20065;-52
2023/03/28 01:19:25;;;;;;;6.18;4.60;;;1.50;1.00;;;;;;4985497;28;20114;-54
2023/03/28 01:22:27;;;;;;;5.85;5.28;;;1.50;1.00;;;;;;4986725;28;20401;-49
2023/03/28 01:25:17;;;;;;;6.93;5.32;;;1.50;1.00;;;;;;4980531;28;20030;-49
2023/03/28 01:28:00;;;;;;;7.15;5.57;;;1.40;1.00;;;;;;4974877;28;20053;-55
2023/03/28 01:30:32;;;;;;;;;;;1.50;1.00;;;;;;4981909;28;20073;-55
2023/03/28 01:33:13;;;;;;;6.43;5.15;;;1.50;89.30;;;;;;4991939;28;19905;-55
2023/03/28 01:36:14;;;;;;;12.45;5.10;;;1.50;25.10;;;;;;4987013;28;20025;-52
2023/03/28 01:38:55;;;;;;;8.32;4.60;;;1.50;99.90;;;;;;4971183;28;20035;-50
2023/03/28 01:41:29;;;;;;;10.63;5.47;;;1.50;99.90;;;;;;4987784;28;20049;-50
2023/03/28 01:44:04;;;;;;;7.63;4.95;;;1.50;99.90;;;;;;4975495;28;20035;-52
2023/03/28 01:46:45;;;;;;;4.97;4.47;;;1.50;1.00;;;;;;4983114;28;20035;-51
2023/03/28 01:49:31;;;;;;;4.63;4.22;;;1.40;99.90;;;;;;4992116;28;20069;-50
2023/03/28 01:52:04;;;;;;;4.15;3.83;;;1.40;99.90;;;;;;4989726;28;20109;-49
2023/03/28 01:54:54;;;;;;;7.35;4.53;;;1.40;99.90;;;;;;4992248;28;20018;-50
2023/03/28 01:57:34;;;;;;;7.03;4.75;;;1.40;99.90;;;;;;4989431;28;20430;-51
2023/03/28 02:00:12;;;;;;;4.18;3.88;;;1.40;99.90;;;;;;4986953;28;20458;-51
2023/03/28 02:02:44;;;;;;;4.30;3.90;;;1.40;99.90;;;;;;4973329;28;20049;-53
2023/03/28 02:05:13;;;;;;;7.03;3.88;;;1.40;99.90;;;;;;4979200;28;20026;-49
2023/03/28 02:07:41;;;;;;;5.20;4.63;;;1.40;99.90;;;;;;4990765;28;20030;-50
2023/03/28 02:10:08;;;;;;;6.22;5.35;;;1.40;99.90;;;;;;4977088;28;20077;-50
2023/03/28 02:12:39;;;;;;;4.57;4.18;;;1.30;99.90;;;;;;4986611;28;20528;-51
2023/03/28 02:15:11;;;;;;;4.80;4.13;;;1.40;99.90;;;;;;4979775;28;20117;-52
2023/03/28 02:17:41;;;;;;;5.60;5.07;;;1.40;99.90;;;;;;4973031;28;20049;-55
2023/03/28 02:20:11;;;;;;;9.00;5.68;;;1.30;99.90;;;;;;4990306;28;20022;-56
2023/03/28 02:22:57;;;;;;;11.95;6.22;;;1.30;99.90;;;;;;4983438;28;20027;-51
2023/03/28 02:25:23;;;;;;;6.22;5.50;;;1.30;99.90;;;;;;4989105;28;20410;-51
2023/03/28 02:27:54;;;;;;;6.05;5.45;;;1.30;99.90;;;;;;4973447;28;20051;-53
2023/03/28 02:30:21;;;;;;;9.90;6.43;;;1.30;99.90;;;;;;4986915;28;20026;-55
2023/03/28 02:32:49;;;;;;;9.88;5.93;;;1.20;99.90;;;;;;4972088;28;20030;-50
2023/03/28 02:35:22;;;;;;;10.02;6.20;;;1.20;99.90;;;;;;4980853;28;20031;-54
2023/03/28 02:38:16;;;;;;;6.50;5.78;;;1.20;99.90;;;;;;4978685;28;20106;-51
2023/03/28 02:41:00;;;;;;;7.75;5.63;;;1.30;99.90;;;;;;4978999;28;20082;-51
2023/03/28 02:43:43;;;;;;;10.05;5.93;;;1.30;99.90;;;;;;4972883;28;20023;-51
2023/03/28 02:46:18;;;;;;;12.55;6.63;;;1.30;99.90;;;;;;4976647;28;20101;-50
2023/03/28 02:48:52;;;;;;;9.30;6.13;;;1.30;99.90;;;;;;4976747;28;20030;-53
2023/03/28 02:51:29;;;;;;;6.95;5.43;;;1.30;99.90;;;;;;4989509;28;20026;-55
2023/03/28 02:54:21;;;;;;;6.68;5.97;;;1.30;99.90;;;;;;4972652;28;20054;-52
2023/03/28 02:56:59;;;;;;;10.55;6.03;;;1.30;99.90;;;;;;4980600;28;20657;-51
2023/03/28 02:59:38;;;;;;;6.60;6.00;;;1.30;99.90;;;;;;4994266;28;20018;-50
2023/03/28 03:02:04;;;;;;;6.57;5.72;;;1.30;99.90;;;;;;4978150;28;20023;-51
2023/03/28 03:04:32;;;;;;;7.90;6.00;;;1.20;99.90;;;;;;4995902;28;20105;-55
2023/03/28 03:07:01;;;;;;;8.52;6.07;;;1.20;99.90;;;;;;4986210;28;20386;-50
2023/03/28 03:09:27;;;;;;;7.47;6.22;;;1.20;99.90;;;;;;4982318;28;20022;-57
2023/03/28 03:11:53;;;;;;;7.25;5.75;;;1.20;99.90;;;;;;4983287;28;20037;-52
2023/03/28 03:14:19;;;;;;;7.03;6.20;;;1.20;99.90;;;;;;4991306;28;20429;-56
2023/03/28 03:16:44;;;;;;;9.13;5.95;;;1.20;99.90;;;;;;4987679;28;20022;-56
2023/03/28 03:19:10;;;;;;;9.55;5.30;;;1.20;99.90;;;;;;4988564;28;20057;-51
2023/03/28 03:21:36;;;;;;;6.30;5.32;;;1.20;99.90;;;;;;4984427;28;20463;-54
2023/03/28 03:24:03;;;;;;;20.38;5.70;;;1.20;99.90;;;;;;4995015;28;20125;-52
2023/03/28 03:26:28;;;;;;;7.88;5.72;;;1.20;99.90;;;;;;4985373;28;20058;-52
2023/03/28 03:28:54;;;;;;;6.03;5.40;;;1.10;99.90;;;;;;4982493;28;20094;-55
2023/03/28 03:31:20;;;;;;;5.88;5.38;;;1.20;99.90;;;;;;4989573;28;20054;-53
2023/03/28 03:33:46;;;;;;;9.75;6.13;;;1.10;99.90;;;;;;4983765;28;20030;-53
2023/03/28 03:36:12;;;;;;;8.20;5.75;;;1.20;99.90;;;;;;4989133;28;20373;-53
2023/03/28 03:38:38;;;;;;;8.65;5.63;;;1.20;99.90;;;;;;4987770;28;20045;-51
2023/03/28 03:41:04;;;;;;;6.28;5.68;;;1.10;99.90;;;;;;4984505;28;20138;-50
2023/03/28 03:43:30;;;;;;;9.35;6.28;;;1.10;99.90;;;;;;4989353;28;20105;-53
2023/03/28 03:45:56;;;;;;;8.32;6.05;;;1.10;99.90;;;;;;4986274;28;20056;-54
2023/03/28 03:48:22;;;;;;;11.80;7.38;;;1.20;99.90;;;;;;4994508;28;20485;-53
2023/03/28 03:50:47;;;;;;;8.25;5.88;;;1.20;99.90;;;;;;4992524;28;20177;-55
2023/03/28 03:53:13;;;;;;;7.75;6.95;;;1.20;99.90;;;;;;4976144;28;20030;-55
2023/03/28 03:55:39;;;;;;;9.88;6.68;;;1.20;99.90;;;;;;4982485;28;20434;-53
2023/03/28 03:58:05;;;;;;;10.55;7.00;;;1.20;99.90;;;;;;4986859;28;20026;-56
2023/03/28 04:00:31;;;;;;;6.80;6.13;;;1.20;99.90;;;;;;4976033;28;20019;-52
2023/03/28 04:02:56;;;;;;;7.88;6.07;;;1.20;99.90;;;;;;4979110;28;20505;-52
2023/03/28 04:05:43;;;;;;;9.73;6.57;;;1.20;99.90;;;;;;4978043;28;20026;-53
2023/03/28 04:08:09;;;;;;;8.75;7.78;;;1.20;99.90;;;;;;4987112;28;20113;-51
2023/03/28 04:10:35;;;;;;;10.20;6.25;;;1.20;99.90;;;;;;4989297;28;20534;-52
2023/03/28 04:13:01;;;;;;;8.65;7.00;;;1.20;99.90;;;;;;4994158;28;20036;-54
2023/03/28 04:15:26;;;;;;;10.38;6.35;;;1.20;99.90;;;;;;4994303;28;20026;-55
2023/03/28 04:17:55;;;;;;;10.25;6.22;;;1.20;99.90;;;;;;4982902;28;20041;-57
2023/03/28 04:20:25;;;;;;;7.47;6.75;;;1.20;99.90;;;;;;4981162;28;20034;-51
2023/03/28 04:22:52;;;;;;;7.35;6.50;;;1.20;99.90;;;;;;4989840;28;20018;-53
2023/03/28 04:25:20;;;;;;;7.95;6.43;;;1.20;99.90;;;;;;4984240;28;20065;-53
2023/03/28 04:27:46;;;;;;;8.02;6.55;;;1.20;99.90;;;;;;4980760;28;20055;-53
2023/03/28 04:30:16;;;;;;;7.13;6.43;;;1.10;99.90;;;;;;4975727;28;20375;-53
2023/03/28 04:32:42;;;;;;;8.20;5.75;;;1.10;99.90;;;;;;4978109;28;20038;-52
2023/03/28 04:35:10;;;;;;;11.38;6.20;;;1.10;99.90;;;;;;4982982;28;20493;-54
2023/03/28 04:37:36;;;;;;;7.25;6.07;;;1.10;99.90;;;;;;4992998;28;20028;-54
2023/03/28 04:40:09;;;;;;;7.78;6.07;;;1.10;99.90;;;;;;4975917;28;20018;-53
2023/03/28 04:42:39;;;;;;;9.68;5.68;;;1.10;99.90;;;;;;4989781;28;20102;-51
2023/03/28 04:45:05;;;;;;;7.22;5.60;;;1.00;99.90;;;;;;4991589;28;20035;-52
2023/03/28 04:47:32;;;;;;;9.20;6.57;;;1.10;99.90;;;;;;4975201;28;20078;-50
2023/03/28 04:49:57;;;;;;;7.68;5.68;;;1.10;99.90;;;;;;4982652;28;20058;-52
2023/03/28 04:52:23;;;;;;;6.57;5.97;;;1.10;99.90;;;;;;4992506;28;20182;-51
2023/03/28 04:54:50;;;;;;;10.88;5.82;;;1.10;99.90;;;;;;4993772;28;20084;-50
2023/03/28 04:57:16;;;;;;;10.32;6.13;;;1.10;99.90;;;;;;4994341;28;20028;-55
2023/03/28 04:59:41;;;;;;;7.22;5.93;;;1.10;99.90;;;;;;4992500;28;20105;-52
2023/03/28 05:02:07;;;;;;;14.93;6.75;;;1.00;99.90;;;;;;4993581;28;20046;-53
2023/03/28 05:04:36;;;;;;;14.27;8.93;;;1.10;99.90;;;;;;4993881;28;20054;-53
2023/03/28 05:07:02;;;;;;;11.15;6.85;;;1.00;99.90;;;;;;4992177;28;20040;-55
2023/03/28 05:09:28;;;;;;;11.27;6.03;;;1.00;99.90;;;;;;4993821;28;20132;-52
2023/03/28 05:11:54;;;;;;;8.82;6.18;;;1.10;99.90;;;;;;4993319;28;20030;-55
2023/03/28 05:14:20;;;;;;;9.85;5.75;;;1.00;99.90;;;;;;4993392;28;20096;-50
2023/03/28 05:16:45;;;;;;;6.18;5.57;;;1.00;99.90;;;;;;4993429;28;20026;-57
2023/03/28 05:19:11;;;;;;;10.85;7.15;;;1.00;99.90;;;;;;4993424;28;20046;-50
2023/03/28 05:21:37;;;;;;;13.98;7.38;;;1.00;99.90;;;;;;4992830;28;20027;-51
2023/03/28 05:24:03;;;;;;;10.35;6.80;;;1.10;99.90;;;;;;4993249;28;20030;-48
2023/03/28 05:26:29;;;;;;;7.43;6.18;;;1.10;99.90;;;;;;4993319;28;20109;-50
2023/03/28 05:28:55;;;;;;;10.52;6.18;;;1.10;99.90;;;;;;4992755;28;20046;-52
2023/03/28 05:31:24;;;;;;;12.43;6.13;;;1.10;99.90;;;;;;4993350;28;20026;-51
2023/03/28 05:33:50;;;;;;;9.57;5.35;;;1.10;99.90;;;;;;4993082;28;20026;-51
2023/03/28 05:36:16;;;;;;;8.85;5.80;;;1.20;99.90;;;;;;4991837;28;20445;-51
2023/03/28 05:38:41;;;;;;;7.30;5.90;;;1.10;99.90;;;;;;4993119;28;20692;-51
2023/03/28 05:41:07;;;;;;;5.70;5.15;;;1.20;99.90;;;;;;4992952;28;20370;-53
2023/03/28 05:43:45;;;;;;;10.05;5.85;;;1.20;99.90;;;;;;4993025;28;20026;-51
2023/03/28 05:46:11;;;;;;;30.33;13.18;;;1.20;99.90;;;;;;4993071;28;20117;-50
2023/03/28 05:48:36;;;;;;;8.02;5.75;;;1.20;99.90;;;;;;4992832;28;20105;-53
2023/03/28 05:51:02;;;;;;;9.05;5.15;;;1.20;99.90;;;;;;4992350;28;20462;-52
2023/03/28 05:53:28;;;;;;;10.35;5.57;;;1.20;99.90;;;;;;4992106;28;20034;-51
2023/03/28 05:55:53;;;;;;;11.80;5.65;;;1.20;99.90;;;;;;4992501;28;20026;-53
2023/03/28 05:58:19;;;;;;;8.70;5.25;;;1.20;99.90;;;;;;4992685;28;20038;-54
2023/03/28 06:00:45;;;;;;;7.38;5.03;;;1.20;99.90;;;;;;4992625;28;20026;-50
2023/03/28 06:03:13;;;;;;;6.03;4.75;;;1.20;99.90;;;;;;4992784;28;20019;-57
2023/03/28 06:05:39;;;;;;;11.48;4.75;;;1.20;99.90;;;;;;4992624;28;20045;-53
2023/03/28 06:08:05;;;;;;;8.80;4.65;;;1.20;99.90;;;;;;4991023;28;20030;-55
2023/03/28 06:10:30;;;;;;;8.40;5.13;;;1.30;99.90;;;;;;4992346;28;20041;-50
2023/03/28 06:12:56;;;;;;;16.13;5.28;;;1.20;99.90;;;;;;4992525;28;20409;-53
2023/03/28 06:15:21;;;;;;;5.72;5.22;;;1.20;99.90;;;;;;4992387;28;20501;-54
2023/03/28 06:17:47;;;;;;;6.75;4.95;;;1.40;99.90;;;;;;4992108;28;20036;-52
2023/03/28 06:20:13;;;;;;;7.88;4.82;;;1.40;99.90;;;;;;4991907;28;20029;-52
2023/03/28 06:22:39;;;;;;;12.57;5.30;;;1.40;99.90;;;;;;4991708;28;20136;-52
2023/03/28 06:25:05;;;;;;;13.57;4.88;;;1.50;99.90;;;;;;4991473;28;20054;-57
2023/03/28 06:27:32;;;;;;;7.30;4.90;;;1.60;99.90;;;;;;4992004;28;20477;-51
2023/03/28 06:29:58;;;;;;;7.72;4.72;;;1.70;99.90;;;;;;4992070;28;20045;-53
2023/03/28 06:32:25;;;;;;;7.85;5.25;;;1.60;99.90;;;;;;4991221;28;20022;-52
2023/03/28 06:34:51;;;;;;;14.15;9.13;;;1.60;99.90;;;;;;4992062;28;20110;-53
2023/03/28 06:37:16;;;;;;;12.35;7.15;;;1.60;99.90;;;;;;4990902;28;20541;-55
2023/03/28 06:39:42;;;;;;;8.48;6.00;;;1.60;99.90;;;;;;4991497;28;20018;-52
2023/03/28 06:42:08;;;;;;;12.93;5.35;;;1.70;99.90;;;;;;4991458;28;20121;-53
2023/03/28 06:44:33;;;;;;;7.70;6.18;;;1.80;99.90;;;;;;4991841;28;20072;-53
2023/03/28 06:46:59;;;;;;;10.15;6.00;;;1.80;99.90;;;;;;4989836;28;20034;-55
2023/03/28 06:49:25;;;;;;;9.30;5.72;;;1.90;99.90;;;;;;4991879;28;20029;-51
2023/03/28 06:51:51;;;;;;;5.63;5.10;;;1.90;99.90;;;;;;4991110;28;20061;-56
2023/03/28 06:54:17;;;;;;;10.30;6.82;;;1.90;99.90;;;;;;4991371;28;20014;-56
2023/03/28 06:56:43;;;;;;;6.75;5.65;;;2.00;99.90;;;;;;4991551;28;20041;-57
2023/03/28 06:59:09;;;;;;;9.02;5.43;;;2.00;99.90;;;;;;4992116;28;20109;-52
2023/03/28 07:01:34;;;;;;;13.50;5.35;;;2.00;99.90;;;;;;4991909;28;20368;-51
2023/03/28 07:04:01;;;;;;;13.80;5.68;;;2.10;99.90;;;;;;4991752;28;20022;-50
2023/03/28 07:06:27;;;;;;;8.40;5.43;;;2.00;99.90;;;;;;4991951;28;20056;-52
2023/03/28 07:08:55;;;;;;;9.68;5.22;;;1.90;99.90;;;;;;4991860;28;20473;-55
2023/03/28 07:11:20;;;;;;;7.30;5.53;;;1.90;99.90;;;;;;4991933;28;20030;-53
2023/03/28 07:13:46;;;;;;;11.52;5.72;;;1.90;99.90;;;;;;4991569;28;20041;-52
2023/03/28 07:16:13;;;;;;;7.45;6.30;;;1.90;99.90;;;;;;4991575;28;20045;-53
2023/03/28 07:18:42;;;;;;;7.65;5.00;;;2.10;99.90;;;;;;4991627;28;20187;-52
2023/03/28 07:21:11;;;;;;;6.97;5.68;;;2.20;99.90;;;;;;4991558;28;20513;-53
2023/03/28 07:23:38;;;;;;;8.85;6.20;;;2.10;99.90;;;;;;4991501;28;20021;-52
2023/03/28 07:26:05;;;;;;;10.23;6.40;;;2.00;99.90;;;;;;4991592;28;20560;-50
2023/03/28 07:28:31;;;;;;;6.88;5.22;;;2.10;99.90;;;;;;4991164;28;20129;-54
2023/03/28 07:30:59;;;;;;;6.13;4.72;;;2.30;99.90;;;;;;4990549;28;20523;-50
2023/03/28 07:33:24;;;;;;;7.28;4.45;;;2.60;98.80;;;;;;4991051;28;20031;-52
2023/03/28 07:35:51;;;;;;;8.27;4.97;;;2.70;98.20;;;;;;4991310;28;20088;-55
2023/03/28 07:38:17;;;;;;;7.57;4.80;;;2.50;98.30;;;;;;4991317;28;20359;-55
2023/03/28 07:40:43;;;;;;;8.27;5.68;;;2.60;98.10;;;;;;4990628;28;20026;-51
2023/03/28 07:43:09;;;;;;;11.10;5.25;;;2.60;99.70;;;;;;4991054;28;20501;-53
2023/03/28 07:45:36;;;;;;;5.72;4.60;;;2.60;98.20;;;;;;4994231;28;20105;-55
2023/03/28 07:48:02;;;;;;;6.93;5.18;;;2.70;99.30;;;;;;4993235;28;20153;-56
2023/03/28 07:50:28;;;;;;;7.68;5.40;;;2.80;99.10;;;;;;4994671;28;20023;-53
2023/03/28 07:52:56;;;;;;;7.57;4.82;;;2.70;98.00;;;;;;4994600;28;20049;-54
2023/03/28 07:55:26;;;;;;;8.85;5.90;;;2.80;98.30;;;;;;4994576;28;20502;-55
2023/03/28 07:57:52;;;;;;;7.85;4.95;;;2.80;98.50;;;;;;4994931;28;20026;-55
2023/03/28 08:00:19;;;;;;;7.97;5.45;;;2.70;98.10;;;;;;4994833;28;20026;-54
2023/03/28 08:02:45;;;;;;;11.85;5.18;;;2.60;99.50;;;;;;4993373;28;20058;-51
2023/03/28 08:05:11;;;;;;;7.78;5.43;;;2.70;99.40;;;;;;4994878;28;20031;-55
2023/03/28 08:07:37;;;;;;;10.10;6.03;;;2.80;97.70;;;;;;4994411;28;20387;-54
2023/03/28 08:10:03;;;;;;;6.25;5.38;;;2.70;97.90;;;;;;4994471;28;20041;-55
2023/03/28 08:12:29;;;;;;;9.77;6.25;;;2.90;96.90;;;;;;4993511;28;20234;-53
2023/03/28 08:14:55;;;;;;;7.57;5.63;;;3.10;97.70;;;;;;4993656;28;20378;-55
2023/03/28 08:17:20;;;;;;;6.45;4.68;;;3.40;96.50;;;;;;4994401;28;20023;-54
2023/03/28 08:19:46;;;;;;;5.10;4.32;;;3.50;96.20;;;;;;4994463;28;20109;-55
2023/03/28 08:22:12;;;;;;;11.80;5.72;;;3.40;97.40;;;;;;4994362;28;20034;-52
2023/03/28 08:24:39;;;;;;;8.82;6.13;;;2.90;97.40;;;;;;4994503;28;20166;-56
2023/03/28 08:27:05;;;;;;;7.57;5.28;;;3.10;98.60;;;;;;4992857;28;20050;-53
2023/03/28 08:29:30;;;;;;;11.45;6.00;;;3.00;98.80;;;;;;4994441;28;20085;-54
2023/03/28 08:31:56;;;;;;;7.68;5.97;;;3.00;98.70;;;;;;4994001;28;20109;-58
2023/03/28 08:34:22;;;;;;;6.85;5.22;;;3.00;99.30;;;;;;4993602;28;20033;-50
2023/03/28 08:36:48;;;;;;;14.07;8.80;;;2.90;99.90;;;;;;4993375;28;20018;-50
2023/03/28 08:39:14;;;;;;;7.53;6.20;;;2.70;99.90;;;;;;4994190;28;20402;-56
2023/03/28 08:42:11;;;;;;;11.52;7.45;;;2.90;99.90;;;;;;4994431;28;20026;-55
2023/03/28 08:45:12;;;;;;;7.97;5.80;;;2.90;99.90;;;;;;4994268;28;20018;-53
2023/03/28 08:48:18;;;;;;;11.05;7.38;;;3.20;99.70;;;;;;4994272;28;20034;-50
2023/03/28 08:50:53;;;;;;;11.07;8.15;;;3.10;99.80;;;;;;4994169;28;20026;-57
2023/03/28 08:53:36;;;;;;;5.55;4.93;;;3.60;99.30;;;;;;4994018;28;20023;-56
2023/03/28 08:56:05;;;;;;;16.35;6.20;;;3.60;96.40;;;;;;4992735;28;20023;-50
2023/03/28 08:59:00;;;;;;;14.93;6.78;;;3.50;96.50;;;;;;4993961;28;20026;-52
2023/03/28 09:01:28;;;;;;;9.90;5.65;;;3.30;94.90;;;;;;4991278;28;20363;-53
2023/03/28 09:03:54;;;;;;;10.95;5.60;;;3.10;96.60;;;;;;4993781;28;20026;-52
2023/03/28 09:06:23;;;;;;;11.30;5.32;;;3.50;97.50;;;;;;4993886;28;20153;-53
2023/03/28 09:08:56;;;;;;;9.55;6.38;;;3.60;96.60;;;;;;4993683;28;20028;-55
2023/03/28 09:11:31;;;;;;;7.53;5.03;;;3.40;96.10;;;;;;4993760;28;20027;-53
2023/03/28 09:14:15;;;;;;;19.55;12.40;;;3.70;97.90;;;;;;4993410;28;20068;-51
2023/03/28 09:16:56;;;;;;;7.35;5.88;;;3.70;96.60;;;;;;4993623;28;20031;-51
2023/03/28 09:19:26;;;;;;;8.85;5.32;;;3.20;98.80;;;;;;4993824;28;20045;-50
2023/03/28 09:22:07;;;;;;;18.65;8.15;;;2.90;99.90;;;;;;4993242;28;20019;-52
2023/03/28 09:24:48;;;;;;;9.57;6.72;;;2.70;99.90;;;;;;4993428;28;20033;-52
2023/03/28 09:27:58;;;;;;;18.80;9.43;;;2.70;99.90;;;;;;4993336;28;20046;-52
2023/03/28 09:30:30;;;;;;;25.50;13.23;;;2.80;99.90;;;;;;4987558;28;20046;-53
2023/03/28 09:32:59;;;;;;;13.82;7.18;;;3.20;99.40;;;;;;4992835;28;20030;-50
2023/03/28 09:35:29;;;;;;;6.45;5.47;;;3.70;97.40;;;;;;4992807;28;20041;-54
2023/03/28 09:38:08;;;;;;;14.32;6.20;;;4.00;97.40;;;;;;5005226;28;20053;-49
2023/03/28 09:40:40;;;;;;;15.57;8.23;;;4.00;96.40;;;;;;4992518;28;20019;-50
2023/03/28 09:43:32;;;;;;;10.93;5.22;;;4.10;96.30;;;;;;4992178;28;20363;-51
2023/03/28 09:46:01;;;;;;;10.05;4.55;;;4.70;96.20;;;;;;4992144;28;20026;-52
2023/03/28 09:48:35;;;;;;;7.57;4.22;;;4.80;94.90;;;;;;4992790;28;20038;-51
2023/03/28 09:51:03;;;;;;;7.90;4.03;;;4.80;93.30;;;;;;4992727;28;20417;-53
2023/03/28 09:53:34;;;;;;;10.77;3.47;;;4.50;92.60;;;;;;4992569;28;20030;-51
2023/03/28 09:56:12;;;;;;;5.40;3.00;;;5.10;94.90;;;;;;4992778;28;20026;-52
2023/03/28 09:59:04;;;;;;;6.93;3.67;;;5.30;92.40;;;;;;4992862;28;20070;-50
2023/03/28 10:01:43;;;;;;;9.68;3.85;;;4.90;90.70;;;;;;4990831;28;20066;-51
2023/03/28 10:04:14;;;;;;;9.73;5.55;;;5.00;91.20;;;;;;4992505;28;20058;-52
2023/03/28 10:06:41;;;;;;;3.60;3.30;;;5.20;91.50;;;;;;4992538;28;20030;-50
2023/03/28 10:09:27;;;;;;;6.68;3.72;;;5.40;91.90;;;;;;4992632;28;20015;-53
2023/03/28 10:11:54;;;;;;;7.25;3.90;;;5.50;89.30;;;;;;4992024;28;20034;-51
2023/03/28 10:14:34;;;;;;;6.45;3.85;;;6.00;90.30;;;;;;4992433;28;20072;-51
2023/03/28 10:17:29;;;;;;;7.90;3.80;;;6.00;88.00;;;;;;4992352;28;20524;-54
2023/03/28 10:20:20;;;;;;;10.38;5.28;;;5.80;87.80;;;;;;4991117;28;20109;-54
2023/03/28 10:22:49;;;;;;;8.10;4.10;;;5.90;88.60;;;;;;4987462;28;20050;-51
2023/03/28 10:25:21;;;;;;;9.10;4.43;;;6.00;88.80;;;;;;4992512;28;20030;-54
2023/03/28 10:27:48;;;;;;;9.38;4.15;;;5.50;86.30;;;;;;4992254;28;20061;-50
2023/03/28 10:30:24;;;;;;;12.95;4.85;;;5.80;88.10;;;;;;4992363;28;20026;-53
2023/03/28 10:33:23;;;;;;;11.88;5.53;;;5.70;86.50;;;;;;4991618;28;20089;-51
2023/03/28 10:35:58;;;;;;;8.35;4.32;;;5.10;90.10;;;;;;4973498;28;20037;-59
2023/03/28 10:38:29;;;;;;;4.93;3.35;;;4.70;89.20;;;;;;4983126;28;20031;-59
2023/03/28 10:41:00;;;;;;;9.20;4.07;;;4.90;90.60;;;;;;4974816;28;20085;-58
2023/03/28 10:43:37;;;;;;;9.55;4.00;;;4.90;88.30;;;;;;4962938;28;20041;-56
2023/03/28 10:46:15;;;;;;;8.10;4.20;;;5.50;90.50;;;;;;4962418;28;20039;-56
2023/03/28 10:48:47;;;;;;;9.05;3.70;;;5.90;90.10;;;;;;4979423;28;20369;-59
2023/03/28 10:51:17;;;;;;;10.43;3.55;;;6.50;86.90;;;;;;4962898;28;20039;-59
2023/03/28 10:53:48;;;;;;;7.60;4.18;;;6.50;84.20;;;;;;4962370;28;20093;-58
2023/03/28 10:56:25;;;;;;;9.50;3.83;;;6.30;84.30;;;;;;4965356;28;20041;-57
2023/03/28 10:59:22;;;;;;;7.53;3.25;;;6.10;85.10;;;;;;4964571;28;20031;-57
2023/03/28 11:02:07;;;;;;;8.13;2.75;;;6.00;84.80;;;;;;4963384;28;20031;-56
2023/03/28 11:04:49;;;;;;;10.50;3.00;;;5.50;80.00;;;;;;4962680;28;20029;-59
2023/03/28 11:07:50;;;;;;;6.13;2.80;;;5.30;81.60;;;;;;4965477;28;20488;-56
2023/03/28 11:10:37;;;;;;;9.60;3.70;;;5.00;82.20;;;;;;4964393;28;20054;-55
2023/03/28 11:13:12;;;;;;;5.75;3.15;;;4.10;84.60;;;;;;4973607;28;20478;-56
2023/03/28 11:15:46;;;;;;;7.03;3.47;;;4.20;85.40;;;;;;4962653;28;20034;-54
2023/03/28 11:18:50;;;;;;;9.55;3.83;;;4.30;85.30;;;;;;4961982;28;20393;-57
2023/03/28 11:21:27;;;;;;;3.25;2.95;;;4.40;85.00;;;;;;4965756;28;20031;-58
2023/03/28 11:24:28;;;;;;;6.72;3.35;;;5.60;80.80;;;;;;4965849;28;20038;-57
2023/03/28 11:27:00;;;;;;;5.80;3.25;;;6.20;83.30;;;;;;4958038;28;20094;-56
2023/03/28 11:29:40;;;;;;;11.60;3.13;;;6.10;82.80;;;;;;4965190;28;20038;-58
2023/03/28 11:32:25;;;;;;;9.15;3.10;;;5.60;81.50;;;;;;4965129;28;20148;-59
2023/03/28 11:35:05;;;;;;;3.72;3.30;;;5.10;77.90;;;;;;4965022;28;20070;-60
2023/03/28 11:37:38;;;;;;;5.57;3.30;;;5.30;77.60;;;;;;4965556;28;20101;-59
2023/03/28 11:40:36;;;;;;;8.32;3.03;;;5.20;79.30;;;;;;4965000;28;20027;-59
2023/03/28 11:43:05;;;;;;;4.53;2.75;;;6.50;80.40;;;;;;4975429;28;20051;-52
2023/03/28 11:45:47;;;;;;;10.88;2.95;;;6.50;75.70;;;;;;4964988;28;20043;-55
2023/03/28 11:48:53;;;;;;;8.00;3.20;;;6.40;75.30;;;;;;4963766;28;20054;-55
2023/03/28 11:51:26;;;;;;;4.80;2.90;;;5.50;77.30;;;;;;4965395;28;20109;-56
2023/03/28 11:53:55;;;;;;;6.78;3.08;;;5.00;78.30;;;;;;4965594;28;20046;-58
2023/03/28 11:56:47;;;;;;;4.30;2.60;;;6.30;76.10;;;;;;4965513;28;20049;-55
2023/03/28 11:59:35;;;;;;;6.68;3.13;;;7.30;72.10;;;;;;4963534;28;20113;-57
2023/03/28 12:02:38;;;;;;;10.50;3.30;;;8.80;68.00;;;;;;4965189;28;20489;-58
2023/03/28 12:05:21;;;;;;;6.03;2.38;;;8.90;63.00;;;;;;4965062;28;20043;-55
2023/03/28 12:08:00;;;;;;;5.88;2.05;;;9.10;63.30;;;;;;4966558;28;20034;-57
2023/03/28 12:10:36;;;;;;;5.18;2.30;;;8.60;58.80;;;;;;4974904;28;20073;-55
2023/03/28 12:13:55;;;;;;;5.30;2.85;;;7.50;62.70;;;;;;4975141;28;20034;-55
2023/03/28 12:16:44;;;;;;;4.80;2.50;;;8.50;62.80;;;;;;4965431;28;20418;-57
2023/03/28 12:19:13;;;;;;;3.42;2.45;;;8.60;60.00;;;;;;4975464;28;20058;-55
2023/03/28 12:21:45;;;;;;;5.28;2.42;;;9.10;60.00;;;;;;4975210;28;20058;-57
2023/03/28 12:24:35;;;;;;;5.15;2.42;;;10.50;57.50;;;;;;4982610;28;20085;-57
2023/03/28 12:27:36;;;;;;;9.48;3.80;;;11.00;53.30;;;;;;4975945;28;20043;-56
2023/03/28 12:30:05;;;;;;;4.53;3.55;;;8.60;54.70;;;;;;4985125;28;20067;-55
2023/03/28 12:33:00;;;;;;;8.35;3.22;;;7.40;58.10;;;;;;4985149;28;20022;-57
2023/03/28 12:35:37;;;;;;;7.97;2.38;;;8.50;59.20;;;;;;4982044;28;20460;-57
2023/03/28 12:38:22;;;;;;;4.70;3.22;;;8.50;57.00;;;;;;4989131;28;20238;-55
2023/03/28 12:40:58;;;;;;;3.90;2.40;;;8.00;58.50;;;;;;4973543;28;20615;-58
2023/03/28 12:43:47;;;;;;;6.40;3.50;;;8.30;59.80;;;;;;4974990;28;20122;-58
2023/03/28 12:46:16;;;;;;;8.38;3.50;;;9.50;58.10;;;;;;4974652;28;20039;-57
2023/03/28 12:49:01;;;;;;;4.60;2.50;;;10.70;55.70;;;;;;4974374;28;20053;-58
2023/03/28 12:51:28;;;;;;;7.65;2.60;;;12.20;52.70;;;;;;4975685;28;20033;-56
2023/03/28 12:54:15;;;;;;;5.45;2.70;;;11.90;49.20;;;;;;4981988;28;20027;-59
2023/03/28 12:56:57;;;;;;;4.38;2.25;;;11.90;48.70;;;;;;4992635;28;20142;-55
2023/03/28 12:59:37;;;;;;;6.22;3.25;;;12.20;45.80;;;;;;4990143;28;20080;-58
2023/03/28 13:02:41;;;;;;;7.07;3.90;;;11.20;46.70;;;;;;4985529;28;20051;-56
2023/03/28 13:05:23;;;;;;;6.97;2.07;;;11.20;47.70;;;;;;4962892;28;20022;-58
2023/03/28 13:08:22;;;;;;;16.60;6.90;;;11.20;46.60;;;;;;4993483;28;20018;-56
2023/03/28 13:10:57;;;;;;;13.05;4.47;;;11.30;45.80;;;;;;4993528;28;20030;-57
2023/03/28 13:13:29;;;;;;;4.30;2.03;;;9.90;47.20;;;;;;4993557;28;20015;-57
2023/03/28 13:19:13;;;;;;;6.53;2.20;;;10.30;47.00;;;;;;4972104;28;20090;-54
2023/03/28 13:21:46;;;;;;;5.55;2.65;;;11.50;47.50;;;;;;4974045;28;20030;-58
2023/03/28 13:24:24;;;;;;;5.22;1.88;;;12.20;45.00;;;;;;4974078;28;20517;-59
2023/03/28 13:27:26;;;;;;;5.88;2.78;;;13.80;44.90;;;;;;4974671;28;20113;-57
2023/03/28 13:30:04;;;;;;;5.43;1.85;;;13.60;43.00;;;;;;4990756;28;20077;-58